x

8419317 - Wells, Me (welm1) Weather Station

1:30 - Fri 22nd Aug 2014 All times are EDT. -4 hours from GMT.

  • Wind
    10mph, 13mph gusts
  • Sea Temp 63°f
  • Luft Temp 64°f
  • Sea Pressure 1019.6mb
  • 8419317 - Wells, Me
  • 8419317 - Wells, Me

More Historic Weather Station data

Upgrade to MSW Pro to gain access to the past 30 days of data for over 8000 Wavebouys and Weather Stations around the globe.

Join Pro

Comparision Forecast

View Surf forecast
   
Fr 08/22 1:30 10 13 mph 1019.6mb 63f 64f
1:24 9 13 mph 1019.6mb 62f 64f
1:18 10 14 mph 1019.5mb 62f 64f
1:12 11 15 mph 1019.5mb 62f 64f
1:06 9 13 mph 1019.5mb 62f 65f
1:00 10 14 mph 1019.5mb 62f 65f
12:54 9 13 mph 1019.5mb 62f 65f
12:48 7 13 mph 1019.5mb 62f 65f
12:42 9 15 mph 1019.5mb 62f 64f
12:36 11 15 mph 1019.4mb 62f 65f
12:30 11 14 mph 1019.4mb 62f 65f
12:24 9 14 mph 1019.5mb 62f 65f
12:18 11 14 mph 1019.5mb 62f 65f
12:12 13 15 mph 1019.4mb 62f 65f
12:06 9 15 mph 1019.5mb 62f 65f
12:00 11 14 mph 1019.4mb 62f 65f
11:54 8 11 mph 1019.4mb 61f 65f
11:48 10 14 mph 1019.4mb 61f 65f
11:42 11 15 mph 1019.4mb 61f 65f
11:36 11 16 mph 1019.5mb 61f 64f
11:30 13 16 mph 1019.4mb 61f 65f
11:24 11 14 mph 1019.4mb 61f 65f
11:18 14 17 mph 1019.3mb 61f 65f
11:12 10 14 mph 1019.3mb 61f 65f
11:06 11 17 mph 1019.3mb 61f 65f
11:00 13 16 mph 1019.2mb 61f 65f
10:54 11 14 mph 1019.2mb 61f 65f
10:48 9 15 mph 1019.3mb 61f 65f
10:42 10 14 mph 1019.3mb 61f 65f
10:36 10 14 mph 1019.3mb 61f 65f
10:30 10 15 mph 1019.3mb 60f 65f
10:24 10 14 mph 1019.3mb 60f 65f
10:18 10 13 mph 1019.3mb 60f 65f
10:12 8 11 mph 1019.4mb 61f 65f
10:06 9 11 mph 1019.5mb 60f 65f
10:00 9 13 mph 1019.5mb 61f 65f
9:54 8 10 mph 1019.5mb 61f 65f
9:48 9 13 mph 1019.4mb 61f 65f
9:42 11 16 mph 1019.3mb 61f 65f
9:36 10 14 mph 1019.3mb 61f 65f
9:30 11 15 mph 1019.3mb 61f 65f
9:24 14 16 mph 1019.3mb 61f 65f
9:18 9 11 mph 1019.3mb 62f 65f
9:12 9 14 mph 1019.2mb 62f 64f
9:06 10 13 mph 1019.1mb 62f 64f
9:00 9 11 mph 1019.1mb 62f 64f
8:54 8 11 mph 1019.2mb 62f 64f
8:48 7 11 mph 1019.2mb 62f 64f
8:42 8 13 mph 1019.2mb 61f 64f
8:36 8 13 mph 1019.2mb 62f 64f
8:30 7 11 mph 1019.2mb 62f 64f
8:24 8 10 mph 1019.2mb 62f 64f
8:18 7 10 mph 1019.3mb 62f 63f
8:12 8 10 mph 1019.3mb 62f 63f
8:06 7 9 mph 1019.4mb 62f 63f
8:00 7 9 mph 1019.4mb 62f 63f
7:54 6 7 mph 1019.3mb 62f 63f
7:48 6 8 mph 1019.3mb 62f 63f
7:42 6 7 mph 1019.3mb 62f 63f
7:36 6 7 mph 1019.2mb 62f 62f
7:30 6 7 mph 1019.2mb 62f 62f
7:24 6 7 mph 1019.3mb 62f 62f
7:18 6 7 mph 1019.3mb 62f 62f
7:12 6 7 mph 1019.2mb 62f 62f
7:06 6 7 mph 1019.2mb 63f 62f
7:00 6 8 mph 1019.1mb 63f 62f
6:54 6 8 mph 1019.1mb 63f 62f
6:48 7 9 mph 1019mb 63f 62f
6:42 6 7 mph 1019mb 63f 62f
6:36 7
mph
1019mb 63f 61f
6:30 6 8 mph 1019mb 63f 61f
6:24 7 8 mph 1019mb 63f 61f
6:18 7 8 mph 1018.9mb 63f 61f
6:12 7 8 mph 1019mb 63f 61f
6:06 6 7 mph 1018.9mb 63f 61f
6:00 6 7 mph 1018.8mb 63f 61f
5:54 6 7 mph 1018.7mb 63f 61f
5:48 6
mph
1018.7mb 63f 61f
5:42 5 6 mph 1018.7mb 63f 61f
5:36 6 7 mph 1018.7mb 63f 61f
5:30 6 8 mph 1018.7mb 63f 61f
5:24 6 7 mph 1018.6mb 63f 61f
5:18 6 7 mph 1018.5mb 63f 61f
5:12 6 7 mph 1018.4mb 63f 62f
5:06 6 8 mph 1018.4mb 62f 62f
5:00 6 8 mph 1018.3mb 62f 62f
4:54 6 7 mph 1018.2mb 62f 62f
4:48 6 7 mph 1018.2mb 62f 62f
4:42 6 7 mph 1018.2mb 62f 62f
4:36 6 7 mph 1018.2mb 62f 62f
4:30 6 7 mph 1018.2mb 62f 62f
4:24 5 6 mph 1018.2mb 62f 62f
4:18 6 8 mph 1018.1mb 62f 62f
4:12 6 7 mph 1018.1mb 62f 62f
4:06 6 7 mph 1018.1mb 62f 62f
4:00 6 7 mph 1018.2mb 62f 62f
3:54 5
mph
1018.2mb 62f 62f
3:48 5
mph
1018.1mb 62f 62f
3:42 3 6 mph 1018.2mb 62f 62f
3:36 3 5 mph 1018.2mb 62f 62f
3:30 5 6 mph 1018.2mb 62f 62f
3:24 5 6 mph 1018.2mb 62f 62f
3:18 5 6 mph 1018.2mb 62f 62f
3:12 5 6 mph 1018.2mb 62f 62f
3:06 5 6 mph 1018.2mb 62f 61f
3:00 3 6 mph 1018.2mb 62f 61f
2:54 5 6 mph 1018.2mb 62f 61f
2:48 5
mph
1018.3mb 62f 61f
2:42 3 5 mph 1018.3mb 62f 61f
2:36 3 6 mph 1018.3mb 62f 61f
2:30 5 7 mph 1018.3mb 62f 61f
2:24 5 7 mph 1018.3mb 62f 61f
2:18 6 7 mph 1018.2mb 62f 61f
2:12 6 7 mph 1018.2mb 62f 61f
2:06 5 6 mph 1018.3mb 62f 61f
2:00 3 6 mph 1018.4mb 62f 61f
1:54 5 6 mph 1018.4mb 62f 61f
1:48 6 8 mph 1018.3mb 62f 61f
1:42 6 7 mph 1018.3mb 61f 61f
1:36 6 7 mph 1018.3mb 62f 62f
1:30 6 7 mph 1018.3mb 61f 62f
1:24 6
mph
1018.3mb 61f 62f
1:18 5 6 mph 1018.4mb 61f 62f
1:12 5 6 mph 1018.4mb 61f 62f
1:06 3 6 mph 1018.4mb 61f 62f
1:00 3 5 mph 1018.5mb 61f 62f
12:54 3 5 mph 1018.5mb 61f 62f
12:48 3 5 mph 1018.5mb 61f 62f
12:42 5
mph
1018.5mb 61f 62f
12:36 3 5 mph 1018.5mb 61f 62f
12:30 5
mph
1018.6mb 61f 62f
12:24 3 5 mph 1018.6mb 61f 62f
12:18 3 5 mph 1018.7mb 61f 62f
12:12 3 5 mph 1018.7mb 61f 62f
12:06 3 5 mph 1018.7mb 61f 62f
12:00 3 5 mph 1018.7mb 61f 62f
Do 08/21 11:54 3 5 mph 1018.7mb 61f 63f
11:48 5 6 mph 1018.6mb 61f 63f
11:42 5 6 mph 1018.6mb 61f 63f
11:36 3 6 mph 1018.6mb 61f 63f
11:30 5 7 mph 1018.6mb 61f 63f
11:24 6 7 mph 1018.6mb 61f 63f
11:18 5 6 mph 1018.7mb 61f 63f
11:12 5 6 mph 1018.6mb 60f 63f
11:06 6
mph
1018.6mb 60f 63f
11:00 5
mph
1018.7mb 60f 63f
10:54 3 5 mph 1018.7mb 60f 63f
10:48 5
mph
1018.7mb 60f 63f
10:42 5 6 mph 1018.7mb 60f 63f
10:36 3 5 mph 1018.8mb 60f 63f
10:30 3
mph
1018.8mb 60f 63f
10:24 2 3 mph 1018.8mb 60f 63f
10:18 3
mph
1018.8mb 60f 63f
10:12 3
mph
1018.7mb 60f 63f
10:06 2
mph
1018.7mb 60f 63f
10:00  -  1 mph 1018.8mb 60f 63f
9:54 1
mph
1018.7mb 60f 63f
9:48  -  1 mph 1018.6mb 60f 63f
9:42  -  2 mph 1018.6mb 60f 63f
9:36 2 3 mph 1018.6mb 60f 63f
9:30 2 3 mph 1018.7mb 60f 63f
9:24 2 3 mph 1018.7mb 60f 63f
9:18 2
mph
1018.7mb 60f 63f
9:12 2
mph
1018.7mb 60f 64f
9:06  -  1 mph 1018.6mb 60f 64f
9:00 2
mph
1018.6mb 60f 64f
8:54  -  1 mph 1018.6mb 60f 64f
8:48 1
mph
1018.6mb 60f 64f
8:42  -  2 mph 1018.6mb 61f 64f
8:36 2
mph
1018.6mb 61f 64f
8:30 1 2 mph 1018.5mb 62f 64f
8:24  -  mph 1018.5mb 62f 65f
8:18  -  1 mph 1018.5mb 61f 65f
8:12 1 2 mph 1018.5mb 61f 65f
8:06 2
mph
1018.4mb 61f 66f
8:00 2
mph
1018.4mb 61f 66f
7:54 2 3 mph 1018.5mb 61f 66f
7:48 3 5 mph 1018.5mb 61f 66f
7:42 3 5 mph 1018.5mb 61f 66f
7:36 3 5 mph 1018.5mb 61f 66f
7:30 3 5 mph 1018.4mb 61f 66f
7:24 3 5 mph 1018.4mb 61f 66f
7:18 3 5 mph 1018.3mb 61f 67f
7:12 3
mph
1018.2mb 61f 67f
7:06 3
mph
1018.2mb 61f 67f
7:00 2 3 mph 1018.1mb 61f 67f
6:54 2 3 mph 1018mb 61f 67f
6:48 3
mph
1018.1mb 62f 67f
6:42 3
mph
1018.1mb 62f 67f
6:36 2 3 mph 1018mb 62f 68f
6:30 2 3 mph 1017.9mb 62f 68f
6:24 2 3 mph 1017.8mb 62f 68f
6:18 2 3 mph 1017.8mb 62f 68f
6:12 3
mph
1017.8mb 63f 69f
6:06 3
mph
1017.8mb 63f 69f
6:00 3
mph
1017.8mb 63f 69f
5:54 3
mph
1017.9mb 63f 69f
5:48 2 3 mph 1017.8mb 63f 69f
5:42 2 3 mph 1017.8mb 64f 69f
5:36 2
mph
1017.8mb 64f 69f
5:30 1 2 mph 1017.8mb 64f 69f
5:24 1 2 mph 1017.9mb 64f 68f
5:18 2
mph
1017.9mb 64f 68f
5:12 2
mph
1017.8mb 64f 68f
5:06 2
mph
1017.7mb 64f 68f
5:00 1 2 mph 1017.7mb 64f 69f
4:54 1 3 mph 1017.8mb 64f 68f
4:48 2 5 mph 1017.7mb 64f 68f
4:42 3 5 mph 1017.7mb 64f 68f
4:36 3 5 mph 1017.8mb 63f 67f
4:30 3 5 mph 1017.8mb 63f 67f
4:24 3 5 mph 1017.9mb 63f 68f
4:18 3 5 mph 1017.9mb 62f 67f
4:12 5
mph
1017.8mb 62f 68f
4:06 5 6 mph 1017.7mb 62f 68f
4:00 5 6 mph 1017.8mb 62f 68f
3:54 5
mph
1017.9mb 62f 69f
3:48 3 5 mph 1017.9mb 62f 69f
3:42 2 3 mph 1018mb 62f 69f
3:36 1 2 mph 1018mb 62f 71f
3:30 2
mph
1018mb 62f 69f
3:24  -  1 mph 1018.1mb 62f 70f
3:18 1
mph
1018.1mb 62f 69f
3:12 1 2 mph 1018.2mb 62f 69f
3:06 2 3 mph 1018.3mb 62f 68f
3:00 5 6 mph 1018.3mb 62f 67f
2:54 5 6 mph 1018.4mb 62f 68f
2:48 3 5 mph 1018.5mb 62f 67f
2:42 3
mph
1018.5mb 62f 68f
2:36 3
mph
1018.5mb 62f 68f
2:30 3
mph
1018.5mb 62f 68f
2:24 2 3 mph 1018.6mb 62f 69f
2:18 2
mph
1018.6mb 62f 69f
2:12 2
mph
1018.5mb 62f 69f
2:06 1 2 mph 1018.6mb 62f 69f
2:00 2 3 mph 1018.6mb 62f 69f
1:54 2 3 mph 1018.6mb 62f 68f
1:48 3
mph
1018.7mb 62f 68f
1:42 3
mph
1018.7mb 62f 68f
1:36 3
mph
1018.8mb 62f 68f
1:30 3 5 mph 1018.7mb 62f 69f
1:24 3 5 mph 1018.8mb 62f 68f
1:18 3 5 mph 1018.8mb 62f 68f
1:12 3
mph
1018.8mb 62f 69f
1:06 3 5 mph 1018.8mb 62f 68f
1:00 3
mph
1018.8mb 62f 69f
12:54 3
mph
1018.7mb 62f 69f
12:48 2 3 mph 1018.7mb 62f 69f
12:42 3
mph
1018.6mb 62f 68f
12:36 1 2 mph 1018.6mb 62f 68f
12:30 2 3 mph 1018.6mb 62f 67f
12:24 3 5 mph 1018.6mb 62f 67f
12:18 3 5 mph 1018.5mb 62f 68f
12:12 2 3 mph 1018.5mb 62f 67f
12:06 2 3 mph 1018.5mb 61f 67f
12:00 2 5 mph 1018.5mb 61f 67f
11:54 2 3 mph 1018.5mb 61f 66f
11:48 2 5 mph 1018.4mb 61f 65f
11:42 3 5 mph 1018.4mb 61f 65f
11:36 3 5 mph 1018.3mb 61f 65f
11:30 3 6 mph 1018.4mb 61f 65f
11:24 5 6 mph 1018.3mb 61f 65f
11:18 5 6 mph 1018.3mb 61f 65f
11:12 5 6 mph 1018.4mb 61f 65f
11:06 5 6 mph 1018.5mb 61f 65f
11:00 3 5 mph 1018.6mb 61f 65f
10:54 5 6 mph 1018.6mb 60f 65f
10:48 5
mph
1018.6mb 60f 65f
10:42 3
mph
1018.7mb 60f 65f
10:36 3
mph
1018.8mb 60f 65f
10:30 1 2 mph 1018.9mb 60f 65f
10:24 1 2 mph 1018.9mb 60f 65f
10:18 2
mph
1018.9mb 60f 65f
10:12  -  1 mph 1018.9mb 60f 65f
10:06  -  2 mph 1018.9mb 60f 65f
10:00 2
mph
1018.9mb 60f 65f
9:54 2 3 mph 1018.8mb 60f 65f
9:48 1 3 mph 1018.8mb 60f 65f
9:42 2 3 mph 1018.8mb 60f 65f
9:36 1
mph
1018.8mb 60f 65f
9:30 1 2 mph 1018.8mb 60f 65f
9:24  -  1 mph 1018.9mb 60f 65f
9:18  -  1 mph 1018.9mb 60f 65f
9:12  -  1 mph 1018.9mb 60f 65f
9:06 1 2 mph 1018.8mb 61f 65f
9:00 2
mph
1018.9mb 61f 64f
8:54 1 2 mph 1018.8mb 61f 64f
8:48 1 2 mph 1018.8mb 61f 64f
8:42 2 3 mph 1018.7mb 61f 64f
8:36 3 5 mph 1018.6mb 61f 64f
8:30 2 3 mph 1018.6mb 61f 63f
8:24 2 3 mph 1018.6mb 61f 63f
8:18 2
mph
1018.7mb 61f 62f
8:12 2 3 mph 1018.7mb 61f 61f
8:06 2 5 mph 1018.6mb 61f 60f
8:00 3 5 mph 1018.5mb 61f 60f
7:54 3 5 mph 1018.3mb 60f 59f
7:48 5
mph
1018.3mb 60f 58f
7:42 3 5 mph 1018.3mb 60f 57f
7:36 5 6 mph 1018.2mb 60f 57f
7:30 5 6 mph 1018.3mb 60f 56f
7:24 3 5 mph 1018.2mb 60f 56f
7:18 3 5 mph 1018.1mb 61f 56f
7:12 5 6 mph 1017.9mb 61f 55f
7:06 5 6 mph 1017.9mb 61f 55f
7:00 3 5 mph 1018mb 61f 55f
6:54 3 5 mph 1018.1mb 61f 55f
6:48 2 3 mph 1018mb 61f 55f
6:42 2
mph
1017.8mb 62f 54f
6:36 1 2 mph 1017.8mb 62f 54f
6:30  -  1 mph 1017.8mb 62f 54f
6:24  -  1 mph 1017.7mb 62f 54f
6:18 1 2 mph 1017.7mb 62f 53f
6:12 2 3 mph 1017.6mb 62f 54f
6:06 2 3 mph 1017.5mb 63f 53f
6:00 3 5 mph 1017.5mb 63f 53f
5:54 3
mph
1017.5mb 63f 53f
5:48 2
mph
1017.5mb 63f 53f
5:42  -  1 mph 1017.5mb 63f 53f
5:36 1 2 mph 1017.5mb 63f 53f
5:30 2
mph
1017.5mb 64f 53f
5:24 1 2 mph 1017.4mb 64f 53f
5:18 2 3 mph 1017.4mb 64f 53f
5:12 2
mph
1017.4mb 64f 53f
5:06 2 3 mph 1017.4mb 64f 53f
5:00 2 3 mph 1017.4mb 64f 53f
4:54 2 3 mph 1017.4mb 64f 54f
4:48 3
mph
1017.3mb 64f 54f
4:42 1 2 mph 1017.4mb 64f 54f
4:36 2 3 mph 1017.5mb 64f 54f
4:30 1
mph
1017.5mb 64f 54f
4:24 1
mph
1017.5mb 64f 54f
4:18  -  2 mph 1017.4mb 64f 54f
4:12 2 3 mph 1017.3mb 63f 54f
4:06 3
mph
1017.3mb 63f 54f
4:00 2 3 mph 1017.3mb 63f 55f
3:54 2
mph
1017.3mb 63f 54f
3:48 2 3 mph 1017.3mb 63f 55f
3:42 3 5 mph 1017.3mb 63f 54f
3:36 5
mph
1017.3mb 63f 54f
3:30 3
mph
1017.3mb 63f 54f
3:24 2 3 mph 1017.3mb 63f 55f
3:18 1 2 mph 1017.3mb 63f 55f
3:12  -  2 mph 1017.4mb 63f 55f
3:06 1 3 mph 1017.4mb 63f 55f
3:00 2 3 mph 1017.4mb 63f 56f
2:54 3 5 mph 1017.4mb 63f 55f
2:48 1 2 mph 1017.5mb 63f 55f
2:42 1
mph
1017.5mb 63f 55f
2:36 2
mph
1017.5mb 62f 56f
2:30  -  3 mph 1017.4mb 62f 56f
2:24 3
mph
1017.4mb 62f 55f
2:18 2 3 mph 1017.4mb 62f 55f
2:12 5 6 mph 1017.3mb 62f 55f
2:06 3
mph
1017.2mb 62f 55f
2:00 3
mph
1017.2mb 62f 55f
1:54 2 3 mph 1017.2mb 62f 55f
1:48 2
mph
1017.2mb 62f 56f
1:42 2
mph
1017.3mb 62f 56f
1:36 1
mph
1017.2mb 62f 56f
1:30  -  2 mph 1017.2mb 62f 56f
1:24  -  1 mph 1017.3mb 62f 56f
1:18  -  2 mph 1017.3mb 62f 56f
1:12 2
mph
1017.2mb 62f 57f
1:06  -  1 mph 1017.2mb 62f 57f
1:00  -  1 mph 1017.2mb 62f 57f
12:54  -  1 mph 1017.2mb 62f 58f
12:48  -  1 mph 1017.3mb 62f 57f
12:42  -  mph 1017.3mb 62f 57f
12:36  -  1 mph 1017.3mb 62f 57f
12:30  -  1 mph 1017.3mb 62f 58f
12:24 1
mph
1017.3mb 62f 58f
12:18  -  1 mph 1017.3mb 62f 58f
12:12  -  1 mph 1017.3mb 62f 58f
12:06  -  1 mph 1017.4mb 62f 58f
12:00 1 2 mph 1017.4mb 62f 58f
Mi 08/20 11:54 2
mph
1017.3mb 62f 58f
11:48 2
mph
1017.2mb 62f 59f
11:42 1 2 mph 1017.3mb 62f 58f
11:36  -  1 mph 1017.4mb 62f 58f
11:30 1 2 mph 1017.5mb 62f 58f
11:24 2 3 mph 1017.5mb 62f 58f
11:18 2 3 mph 1017.5mb 62f 59f
11:12 3
mph
1017.4mb 62f 58f
11:06 2
mph
1017.4mb 62f 59f
11:00 2
mph
1017.3mb 62f 58f
10:54 2
mph
1017.3mb 62f 59f
10:48 2
mph
1017.3mb 61f 59f
10:42  -  1 mph 1017.3mb 61f 59f
10:36  -  2 mph 1017.2mb 61f 59f
10:30 1 2 mph 1017.1mb 61f 59f
10:24 1 2 mph 1017.1mb 61f 59f
10:18 2
mph
1017.2mb 61f 60f
10:12 2
mph
1017.2mb 61f 60f
10:06 2
mph
1017.1mb 61f 60f
10:00 1 2 mph 1017.1mb 61f 60f
9:54 2
mph
1017.1mb 61f 60f
9:48 1 2 mph 1016.9mb 61f 60f
9:42 1 2 mph 1017mb 61f 60f
9:36 2 5 mph 1017mb 61f 61f
9:30 5
mph
1016.9mb 61f 61f
9:24 3 5 mph 1016.9mb 61f 60f
9:18 3
mph
1017mb 61f 60f
9:12 3
mph
1017mb 61f 61f
9:06 3
mph
1016.9mb 61f 61f
9:00 2 3 mph 1017mb 61f 61f
8:54 2 3 mph 1017mb 61f 61f
8:48 2
mph
1017.1mb 61f 62f
8:42 1
mph
1017mb 61f 62f
8:36 1
mph
1017.1mb 62f 62f
8:30  -  1 mph 1017.1mb 62f 63f
8:24 1
mph
1017.1mb 62f 63f
8:18 1 2 mph 1017mb 62f 63f
8:12 1
mph
1016.9mb 61f 64f
8:06 1 2 mph 1016.8mb 61f 65f
8:00 2 3 mph 1016.8mb 61f 65f
7:54 2 3 mph 1016.8mb 61f 65f
7:48 3
mph
1016.8mb 61f 65f
7:42 3 6 mph 1016.8mb 62f 65f
7:36 6 7 mph 1016.7mb 62f 66f
7:30 7 8 mph 1016.7mb 62f 66f
7:24 7 8 mph 1016.7mb 62f 66f
7:18 7 9 mph 1016.6mb 62f 67f
7:12 8
mph
1016.6mb 62f 67f
7:06 7 8 mph 1016.6mb 62f 67f
7:00 6 8 mph 1016.6mb 62f 67f
6:54 7 8 mph 1016.7mb 62f 67f
6:48 8 9 mph 1016.8mb 62f 67f
6:42 7 9 mph 1016.7mb 62f 67f
6:36 6 9 mph 1016.6mb 62f 67f
6:30 7 9 mph 1016.6mb 62f 67f
6:24 7 8 mph 1016.7mb 62f 67f
6:18 6 8 mph 1016.7mb 62f 67f
6:12 6 8 mph 1016.6mb 62f 68f
6:06 6 8 mph 1016.7mb 62f 68f
6:00 5 7 mph 1016.7mb 62f 68f
5:54 5 6 mph 1016.6mb 62f 68f
5:48 5 7 mph 1016.6mb 62f 68f
5:42 6 7 mph 1016.7mb 62f 68f
5:36 7 9 mph 1016.7mb 62f 68f
5:30 7 8 mph 1016.8mb 63f 68f
5:24 6 8 mph 1016.7mb 63f 68f
5:18 6 8 mph 1016.6mb 63f 67f
5:12 6 8 mph 1016.5mb 64f 67f
5:06 7 9 mph 1016.5mb 64f 68f
5:00 7 8 mph 1016.5mb 64f 68f
4:54 7 8 mph 1016.4mb 65f 68f
4:48 7 9 mph 1016.3mb 65f 69f
4:42 7 9 mph 1016.2mb 65f 69f
4:36 7 8 mph 1016.2mb 65f 69f
4:30 6 8 mph 1016.2mb 65f 69f
4:24 7 9 mph 1016.3mb 65f 69f
4:18 7 8 mph 1016.3mb 65f 69f
4:12 8 9 mph 1016.2mb 65f 68f
4:06 8 10 mph 1016.2mb 65f 69f
4:00 8 10 mph 1016.2mb 65f 68f
3:54 8 10 mph 1016.2mb 65f 68f
3:48 7 9 mph 1016.2mb 65f 68f
3:42 7 9 mph 1016.2mb 65f 68f
3:36 8 10 mph 1016.2mb 64f 68f
3:30 8 9 mph 1016.3mb 64f 68f
3:24 8 10 mph 1016.2mb 63f 68f
3:18 7 10 mph 1016.2mb 63f 68f
3:12 9 10 mph 1016.2mb 63f 68f
3:06 8 10 mph 1016.2mb 63f 68f
3:00 9 10 mph 1016.2mb 63f 69f
2:54 8 10 mph 1016.3mb 62f 69f
2:48 8 9 mph 1016.3mb 62f 69f
2:42 7 9 mph 1016.2mb 62f 68f
2:36 7 9 mph 1016.2mb 62f 68f
2:30 8 9 mph 1016.2mb 62f 68f
2:24 7 9 mph 1016.3mb 62f 68f
2:18 8 9 mph 1016.3mb 62f 68f
2:12 7 9 mph 1016.4mb 62f 68f
2:06 7 8 mph 1016.4mb 62f 68f
2:00 7 9 mph 1016.4mb 62f 68f
1:54 8 9 mph 1016.5mb 62f 68f
1:48 7 9 mph 1016.4mb 62f 68f
1:42 8 9 mph 1016.5mb 62f 68f
1:36 8 9 mph 1016.4mb 62f 68f
1:30 7 8 mph 1016.4mb 62f 68f
1:24 7 9 mph 1016.4mb 62f 68f
1:18 7 9 mph 1016.4mb 62f 68f
1:12 6 7 mph 1016.4mb 62f 68f
1:06 6 8 mph 1016.3mb 62f 68f
1:00 7 8 mph 1016.2mb 62f 68f
12:54 7 8 mph 1016.3mb 62f 68f
12:48 7 8 mph 1016.3mb 62f 67f
12:42 6 8 mph 1016.4mb 62f 68f
12:36 6 7 mph 1016.2mb 62f 68f
12:30 6 8 mph 1016.2mb 62f 67f
12:24 6 7 mph 1016.2mb 62f 67f
12:18 7 8 mph 1016.3mb 62f 68f
12:12 6 7 mph 1016.3mb 62f 68f
12:06 5 6 mph 1016.3mb 62f 68f
12:00 5 6 mph 1016.3mb 62f 68f
11:54 3 6 mph 1016.3mb 62f 68f
11:48 3 6 mph 1016.4mb 61f 67f
11:42 3 6 mph 1016.3mb 61f 67f
11:36 5 6 mph 1016.4mb 61f 67f
11:30 6 7 mph 1016.4mb 61f 66f
11:24 6 7 mph 1016.3mb 62f 66f
11:18 6 7 mph 1016.4mb 62f 66f
11:12 6 7 mph 1016.3mb 62f 66f
11:06 6 7 mph 1016.3mb 62f 66f
11:00 7 8 mph 1016.3mb 62f 66f
10:54 6 7 mph 1016.3mb 62f 66f
10:48 6 7 mph 1016.2mb 62f 65f
10:42 7 9 mph 1016.2mb 62f 65f
10:36 7 9 mph 1016.3mb 62f 65f
10:30 8 9 mph 1016.3mb 61f 65f
10:24 8 9 mph 1016.1mb 61f 65f
10:18 7 8 mph 1016.1mb 61f 66f
10:12 6 8 mph 1016mb 61f 65f
10:06 8
mph
1016.1mb 61f 66f
10:00 6 7 mph 1016mb 61f 67f
9:54 6 7 mph 1015.9mb 61f 67f
9:48 6
mph
1015.9mb 61f 67f
9:42 5 6 mph 1015.7mb 61f 66f
9:36 6 7 mph 1015.8mb 61f 67f
9:30 6 8 mph 1015.8mb 61f 67f
9:24 5 7 mph 1015.8mb 61f 67f
9:18 3 5 mph 1015.6mb 61f 67f
9:12 2 3 mph 1015.5mb 61f 67f
9:06 3
mph
1015.5mb 61f 67f
9:00 3 5 mph 1015.6mb 61f 66f
8:54 3 6 mph 1015.6mb 61f 66f
8:48 5 6 mph 1015.6mb 61f 65f
8:42 5 7 mph 1015.5mb 61f 65f
8:36 5 6 mph 1015.5mb 61f 65f
8:30 3 5 mph 1015.5mb 61f 64f
8:24 5
mph
1015.5mb 61f 64f
8:18 5
mph
1015.4mb 61f 64f
8:12 3 5 mph 1015.5mb 61f 63f
8:06 3 5 mph 1015.5mb 61f 63f
8:00 2 3 mph 1015.7mb 61f 63f
7:54 2
mph
1015.5mb 61f 62f
7:48 1 2 mph 1015.6mb 61f 62f
7:42 3
mph
1015.6mb 61f 61f
7:36 1 2 mph 1015.5mb 61f 61f
7:30 2
mph
1015.4mb 61f 60f
7:24 2 3 mph 1015.5mb 61f 59f
7:18 3 5 mph 1015.4mb 61f 59f
7:12 3 5 mph 1015.4mb 61f 58f
7:06 5
mph
1015.3mb 61f 58f
7:00 3
mph
1015.3mb 61f 57f
6:54 2 3 mph 1015.2mb 61f 57f
6:48 2
mph
1015.3mb 61f 56f
6:42 2
mph
1015.3mb 61f 56f
6:36 1 2 mph 1015.2mb 61f 55f
6:30 2
mph
1015.1mb 61f 55f
6:24 1 2 mph 1015mb 61f 54f
6:18 2 3 mph 1014.9mb 61f 53f
6:12 3
mph
1014.9mb 61f 53f
6:06 3
mph
1014.8mb 61f 53f
6:00 2
mph
1014.7mb 61f 54f
5:54 1 2 mph 1014.6mb 61f 54f
5:48 2
mph
1014.5mb 61f 54f
5:42 2 3 mph 1014.4mb 61f 54f
5:36 2
mph
1014.3mb 61f 54f
5:30 2 3 mph 1014.2mb 61f 54f
5:24 2
mph
1014.2mb 61f 54f
5:18  -  1 mph 1014.1mb 61f 55f
5:12 1 2 mph 1014.1mb 62f 54f
5:06  -  1 mph 1014.1mb 62f 55f
5:00  -  1 mph 1014.1mb 62f 54f
4:54 1 2 mph 1014.1mb 62f 54f
4:48 2
mph
1014.1mb 62f 54f
4:42 1
mph
1014.1mb 62f 54f
4:36 1 2 mph 1014mb 63f 55f
4:30 1 2 mph 1014.1mb 63f 55f
4:24 2 3 mph 1013.9mb 63f 56f
4:18 3 5 mph 1014mb 63f 56f
4:12 2
mph
1014mb 63f 56f
4:06 1 2 mph 1014.1mb 63f 55f
4:00 2
mph
1014.1mb 63f 55f
3:54 1 2 mph 1014.1mb 63f 55f
3:48 2 3 mph 1014.1mb 63f 55f
3:42 3
mph
1014.1mb 63f 55f
3:36 3
mph
1014.1mb 63f 56f
3:30 1 2 mph 1014.1mb 63f 56f
3:24  -  1 mph 1014.1mb 63f 56f
3:18 1 2 mph 1014.1mb 63f 56f
3:12 2
mph
1014.1mb 62f 57f
3:06 1
mph
1014.1mb 62f 57f
3:00 1 2 mph 1014mb 62f 57f
2:54 2 3 mph 1014mb 62f 58f
2:48 2 3 mph 1014mb 62f 57f
2:42 2
mph
1014mb 62f 58f
2:36 2
mph
1014mb 62f 58f
2:30 2 3 mph 1013.9mb 62f 58f
2:24 2 6 mph 1013.9mb 62f 59f
2:18 3 5 mph 1013.9mb 62f 59f
2:12 2 5 mph 1013.9mb 62f 59f
2:06 3 5 mph 1013.9mb 62f 59f
2:00 2 3 mph 1013.9mb 62f 59f
1:54 1 2 mph 1014mb 62f 59f
1:48 2 5 mph 1014.1mb 62f 60f
1:42 2 3 mph 1014.1mb 62f 60f
1:36 2 3 mph 1014.2mb 62f 59f
1:30 2 3 mph 1014.2mb 62f 60f
1:24 2 3 mph 1014.1mb 62f 60f
1:18 2 3 mph 1014.1mb 62f 60f
1:12  -  2 mph 1014mb 62f 60f
1:06  -  2 mph 1014mb 62f 60f
1:00  -  1 mph 1014mb 62f 60f
12:54  -  2 mph 1014.1mb 62f 60f
12:48  -  2 mph 1014.1mb 62f 60f
12:42  -  2 mph 1014mb 62f 60f
12:36 2 5 mph 1014mb 62f 60f
12:30 3 6 mph 1014mb 62f 60f
12:24 3 5 mph 1014mb 62f 59f
12:18 2 5 mph 1014mb 62f -
12:12 3 5 mph 1014mb 62f -
12:06 2 3 mph 1013.9mb 62f -
12:00 2
mph
1013.9mb 62f 59f
Di 08/19 11:54  -  1 mph 1013.9mb 62f 59f
11:48  -  1 mph 1013.7mb 62f 59f
11:42 1 2 mph 1013.6mb 62f 59f
11:36 2
mph
1013.6mb 62f 60f
11:30  -  2 mph 1013.7mb 62f 60f
11:24 1 2 mph 1013.7mb 62f 60f
11:18  -  1 mph 1013.7mb 62f 60f
11:12 1 2 mph 1013.7mb 62f 60f
11:06 2
mph
1013.7mb 62f 60f
11:00  -  3 mph 1013.6mb 62f 60f
10:54 1 5 mph 1013.5mb 62f 60f
10:48 2 3 mph 1013.5mb 62f 60f
10:42 2 3 mph 1013.4mb 62f 60f
10:36 2 3 mph 1013.4mb 62f 60f
10:30 2 3 mph 1013.4mb 62f 60f
10:24 2 3 mph 1013.3mb 62f 60f
10:18 2 3 mph 1013.3mb 62f 61f
10:12 2 3 mph 1013.2mb 62f 60f
10:06 2 3 mph 1013.3mb 62f 60f
10:00 2
mph
1013.2mb 61f 60f
9:54 1 2 mph 1013.2mb 61f 60f
9:48 1
mph
1013.2mb 61f 60f
9:42  -  1 mph 1013.3mb 62f 60f
9:36  -  1 mph 1013.4mb 62f 61f
9:30  -  2 mph 1013.4mb 62f 61f
9:24 1
mph
1013.4mb 62f 61f
9:18  -  2 mph 1013.3mb 62f 62f
9:12 1 3 mph 1013.2mb 62f 62f
9:06 3
mph
1013.2mb 62f 62f
9:00 2
mph
1013.2mb 62f 63f
8:54 2 3 mph 1013.2mb 62f 63f
8:48 3
mph
1013.2mb 61f 63f
8:42 2 3 mph 1013.1mb 61f 63f
8:36 2 3 mph 1013.1mb 61f 64f
8:30 3
mph
1013.1mb 61f 63f
8:24 3
mph
1013mb 61f 63f
8:18 3 5 mph 1012.9mb 61f 63f
8:12 6 7 mph 1012.9mb 61f 64f
8:06 6 7 mph 1012.8mb 61f 64f
8:00 6 7 mph 1012.8mb 61f 64f
7:54 6 8 mph 1012.8mb 61f 64f
7:48 6 8 mph 1012.7mb 61f 64f
7:42 8
mph
1012.7mb 61f 64f
7:36 8 9 mph 1012.7mb 61f 65f
7:30 8 9 mph 1012.7mb 61f 65f
7:24 6 8 mph 1012.7mb 61f 65f
7:18 7 9 mph 1012.7mb 61f 65f
7:12 8 10 mph 1012.7mb 61f 65f
7:06 8 10 mph 1012.7mb 61f 65f
7:00 9 10 mph 1012.7mb 62f 65f
6:54 8 11 mph 1012.7mb 62f 66f
6:48 8 11 mph 1012.7mb 62f 66f
6:42 9 13 mph 1012.6mb 62f 66f
6:36 10 11 mph 1012.5mb 62f 66f
6:30 8 10 mph 1012.5mb 62f 66f
6:24 8 11 mph 1012.5mb 62f 66f
6:18 9 11 mph 1012.5mb 62f 66f
6:12 9 11 mph 1012.5mb 62f 66f
6:06 8 11 mph 1012.5mb 61f 66f
6:00 8 10 mph 1012.4mb 61f 66f
5:54 9 11 mph 1012.4mb 61f 66f
5:48 9 11 mph 1012.3mb 61f 66f
5:42 8 11 mph 1012.3mb 61f 66f
5:36 10 11 mph 1012.4mb 61f 66f
5:30 9 11 mph 1012.4mb 61f 66f
5:24 9 11 mph 1012.3mb 61f 66f
5:18 9 11 mph 1012.3mb 61f 66f
5:12 9 11 mph 1012.3mb 61f 66f
5:06 9 13 mph 1012.2mb 61f 66f
5:00 10 13 mph 1012.2mb 61f 66f
4:54 11 14 mph 1012.3mb 61f 66f
4:48 11 13 mph 1012.3mb 61f 66f
4:42 10 13 mph 1012.3mb 61f 66f
4:36 10 14 mph 1012.2mb 62f 67f
4:30 10 13 mph 1012.2mb 62f 67f
4:24 10 13 mph 1012.2mb 62f 67f
4:18 10 13 mph 1012.1mb 62f 66f
4:12 13 15 mph 1012.1mb 62f 66f
4:06 10 14 mph 1012.1mb 62f 67f
4:00 11 13 mph 1012.1mb 62f 67f
3:54 10 13 mph 1012mb 62f 67f
3:48 11 14 mph 1012.1mb 62f 67f
3:42 10 13 mph 1012.1mb 62f 67f
3:36 11 14 mph 1012.1mb 62f 66f
3:30 11 14 mph 1012mb 62f 66f
3:24 11 14 mph 1012mb 62f 66f
3:18 11 14 mph 1012.1mb 62f 66f
3:12 11 14 mph 1012mb 62f 66f
3:06 11 13 mph 1012mb 62f 66f
3:00 11 13 mph 1012mb 62f 66f
2:54 9 13 mph 1012mb 62f 67f
2:48 10 11 mph 1012mb 62f 67f
2:42 9 13 mph 1011.9mb 62f 67f
2:36 11 13 mph 1012mb 61f 67f
2:30 9 13 mph 1012.1mb 61f 67f
2:24 10 13 mph 1012.1mb 60f 67f
2:18 11 14 mph 1012.1mb 60f 67f
2:12 10 13 mph 1012.1mb 60f 67f
2:06 11 14 mph 1012.1mb 60f 67f
2:00 10 14 mph 1012.1mb 60f 67f
1:54 10 13 mph 1012.1mb 60f 66f
1:48 11 14 mph 1012.2mb 60f 66f
1:42 10 13 mph 1012.2mb 60f 67f
1:36 10 14 mph 1012.2mb 60f 66f
1:30 13 15 mph 1012.3mb 60f 66f
1:24 11 14 mph 1012.3mb 60f 66f
1:18 10 13 mph 1012.3mb 60f 66f
1:12 10 14 mph 1012.3mb 60f 66f
1:06 10 14 mph 1012.3mb 60f 66f
1:00 13 15 mph 1012.4mb 60f 65f
12:54 11 14 mph 1012.5mb 60f 65f
12:48 11 14 mph 1012.5mb 59f 66f
12:42 10 13 mph 1012.5mb 59f 65f
12:36 10 13 mph 1012.5mb 59f 65f
12:30 9 13 mph 1012.5mb 59f 66f
12:24 9 13 mph 1012.6mb 59f 65f
12:18 11 13 mph 1012.6mb 59f 65f
12:12 10 13 mph 1012.6mb 59f 65f
12:06 10 13 mph 1012.6mb 59f 65f
12:00 11 13 mph 1012.7mb 59f 65f
11:54 10 11 mph 1012.7mb 59f 66f
11:48 8 9 mph 1012.6mb 59f 66f
11:42 8 9 mph 1012.7mb 59f 65f
11:36 8 10 mph 1012.7mb 59f 65f
11:30 8 10 mph 1012.6mb 59f 65f
11:24 8 9 mph 1012.5mb 59f 66f
11:18 7 8 mph 1012.6mb 59f 66f
11:12 8 9 mph 1012.7mb 59f 66f
11:06 8 9 mph 1012.6mb 59f 66f
11:00 8 9 mph 1012.7mb 59f 66f
10:54 8 9 mph 1012.7mb 59f 66f
10:48 8
mph
1012.7mb 59f 66f
10:42 7
mph
1012.6mb 59f 66f
10:36 6 7 mph 1012.6mb 59f 66f
10:30 6
mph
1012.6mb 59f 67f
10:24 6
mph
1012.6mb 59f 66f
10:18 5 6 mph 1012.6mb 59f 67f
10:12 5 6 mph 1012.5mb 59f 66f
10:06 6
mph
1012.5mb 59f 65f
10:00 6 7 mph 1012.6mb 59f 65f
9:54 6
mph
1012.5mb 59f 66f
9:48 5
mph
1012.5mb 59f 67f
9:42 3
mph
1012.5mb 59f 66f
9:36 3 6 mph 1012.4mb 59f 65f
9:30 3
mph
1012.4mb 59f 65f
9:24 2 3 mph 1012.3mb 59f 65f
9:18 3 5 mph 1012.3mb 58f 64f
9:12 2 6 mph 1012.2mb 58f 64f
9:06 3 5 mph 1012.2mb 58f 63f
9:00 2 3 mph 1012.2mb 58f 62f
8:54 1 3 mph 1012.3mb 58f 62f
8:48 2 3 mph 1012.3mb 58f 62f
8:42 2 3 mph 1012.3mb 58f 62f
8:36 3 5 mph 1012.3mb 58f 62f
8:30 2 5 mph 1012.3mb 58f 63f
8:24 3
mph
1012.2mb 58f 63f
8:18 1 2 mph 1012.3mb 58f 63f
8:12 2 5 mph 1012.3mb 58f 62f
8:06 2 3 mph 1012.2mb 58f 62f
8:00 1 3 mph 1012.2mb 58f 61f
7:54 3 5 mph 1012.1mb 58f 60f
7:48 5 6 mph 1012mb 58f 60f
7:42 5 6 mph 1011.9mb 58f 59f
7:36 3 6 mph 1012mb 58f 59f
7:30 5 7 mph 1011.9mb 58f 58f
7:24 6
mph
1011.8mb 58f 58f
7:18 5 6 mph 1011.8mb 58f 58f
7:12 5 7 mph 1011.8mb 58f 57f
7:06 2 3 mph 1011.8mb 58f 57f
7:00  -  2 mph 1011.8mb 58f 58f
6:54 1 2 mph 1011.7mb 58f 56f
6:48 1 2 mph 1011.7mb 58f 55f
6:42 2 3 mph 1011.6mb 58f 54f
6:36 2 3 mph 1011.5mb 58f 54f
6:30 2 5 mph 1011.5mb 58f 54f
6:24 2 3 mph 1011.5mb 58f 54f
6:18  -  3 mph 1011.5mb 58f 54f
6:12 1 5 mph 1011.5mb 58f 53f
6:06 3 6 mph 1011.4mb 58f 53f
6:00 5 8 mph 1011.4mb 58f 53f
5:54 5 6 mph 1011.3mb 58f 53f
5:48 6 7 mph 1011.2mb 58f 53f
5:42 6 7 mph 1011.1mb 58f 53f
5:36 5
mph
1011.1mb 58f 53f
5:30 2 3 mph 1011.1mb 58f 54f
5:24 3 5 mph 1011.1mb 58f 54f
5:18 3 5 mph 1011mb 58f 53f
5:12 3
mph
1011mb 59f 53f
5:06 3
mph
1010.9mb 59f 53f
5:00 2 3 mph 1010.9mb 59f 53f
4:54  -  2 mph 1010.8mb 59f 54f
4:48 2 3 mph 1010.8mb 59f 54f
4:42 2 5 mph 1010.6mb 59f 54f
4:36 2 3 mph 1010.6mb 59f 54f
4:30 3 6 mph 1010.7mb 59f 54f
4:24 5 6 mph 1010.6mb 59f 54f
4:18 3 5 mph 1010.5mb 59f 54f
4:12 2 5 mph 1010.5mb 59f 54f
4:06 1 2 mph 1010.4mb 59f 54f
4:00 1 3 mph 1010.4mb 60f 54f
3:54 1 2 mph 1010.4mb 60f 54f
3:48 1 2 mph 1010.2mb 60f 54f
3:42 1 2 mph 1010.2mb 60f 54f
3:36  -  2 mph 1010.2mb 60f 54f
3:30  -  2 mph 1010.2mb 60f 54f
3:24  -  2 mph 1010.3mb 60f 54f
3:18 2 5 mph 1010.3mb 61f 54f
3:12 2 3 mph 1010.3mb 61f 55f
3:06 2 3 mph 1010.3mb 62f 55f
3:00 1 5 mph 1010.4mb 62f 55f
2:54 1 2 mph 1010.4mb 62f 55f
2:48 2 5 mph 1010.4mb 62f 55f
2:42  -  2 mph 1010.4mb 62f 55f
2:36  -  1 mph 1010.3mb 62f 55f
2:30  -  1 mph 1010.3mb 61f 55f
2:24  -  2 mph 1010.2mb 61f 55f
2:18  -  2 mph 1010.2mb 61f 55f
2:12  -  2 mph 1010.3mb 61f 56f
2:06  -  3 mph 1010.3mb 60f 56f
2:00 1 5 mph 1010.3mb 60f 56f
1:54 2 5 mph 1010.3mb 60f 56f
1:48 1 2 mph 1010.3mb 60f 56f
1:42 1 2 mph 1010.3mb 60f 56f
1:36 1 3 mph 1010.3mb 60f 56f
1:30 1 2 mph 1010.3mb 60f 56f
1:24  -  3 mph 1010.3mb 60f 56f
1:18 2 3 mph 1010.4mb 60f 56f
1:12 3
mph
1010.4mb 60f 56f
1:06 2 3 mph 1010.4mb 60f 56f
1:00 1 2 mph 1010.5mb 60f 56f
12:54  -  3 mph 1010.6mb 60f 56f
12:48 2 5 mph 1010.6mb 60f 56f
12:42 3 5 mph 1010.7mb 60f 56f
12:36 2 3 mph 1010.6mb 60f 56f
12:30 1 2 mph 1010.6mb 60f 57f
12:24 1 3 mph 1010.7mb 60f 57f
12:18 2 3 mph 1010.7mb 60f 57f
12:12 2
mph
1010.7mb 60f 57f
12:06 1 2 mph 1010.7mb 60f 58f
12:00 2 3 mph 1010.6mb 60f 58f
Mo 08/18 11:54 2 3 mph 1010.7mb 60f 58f
11:48 2 3 mph 1010.6mb 60f 58f
11:42 3 6 mph 1010.6mb 60f 58f
11:36 6
mph
1010.6mb 60f 58f
11:30 5 6 mph 1010.6mb 60f 59f
11:24 3 5 mph 1010.6mb 60f 60f
11:18 5
mph
1010.7mb 60f 60f
11:12 5
mph
1010.6mb 60f 60f
11:06 5 7 mph 1010.5mb 60f 60f
11:00 6 7 mph 1010.5mb 60f 61f
10:54 6 7 mph 1010.5mb 60f 61f
10:48 7 8 mph 1010.5mb 60f 61f
10:42 6 7 mph 1010.5mb 60f 61f
10:36 7 8 mph 1010.4mb 60f 61f
10:30 8 9 mph 1010.4mb 60f 62f
10:24 7 9 mph 1010.4mb 60f 62f
10:18 8 10 mph 1010.4mb 60f 62f
10:12 8 13 mph 1010.3mb 60f 62f
10:06 9 11 mph 1010.2mb 60f 63f
10:00 9 11 mph 1010.2mb 60f 63f
9:54 8 9 mph 1010.2mb 60f 62f
9:48 7 8 mph 1010.2mb 60f 62f
9:42 7 9 mph 1010.1mb 60f 62f
9:36 7 8 mph 1010.1mb 60f 63f
9:30 7 9 mph 1010.2mb 60f 64f
9:24 8 10 mph 1010.1mb 60f 64f
9:18 8 10 mph 1010mb 60f 65f
9:12 8 9 mph 1009.9mb 60f 65f
9:06 8 10 mph 1009.8mb 60f 65f
9:00 9 10 mph 1009.8mb 60f 65f
8:54 10 11 mph 1009.8mb 60f 65f
8:48 8
mph
1009.8mb 60f 64f
8:42 6 7 mph 1009.8mb 60f 64f
8:36 6
mph
1009.7mb 60f 63f
8:30 5 6 mph 1009.6mb 60f 63f
8:24 5 6 mph 1009.5mb 60f 64f
8:18 5 6 mph 1009.5mb 60f 64f
8:12 2 5 mph 1009.4mb 60f 64f
8:06 2 3 mph 1009.3mb 60f 64f
8:00 2
mph
1009.2mb 60f 65f
7:54 3
mph
1009.2mb 60f 65f
7:48 1 3 mph 1009.2mb 60f 65f
7:42 2 3 mph 1009.1mb 60f 66f
7:36 3 7 mph 1009mb 60f 65f
7:30 6 7 mph 1009mb 60f 65f
7:24 7 8 mph 1009mb 60f 66f
7:18 7
mph
1008.9mb 60f 66f
7:12 7 9 mph 1008.9mb 60f 66f
7:06 8 10 mph 1008.8mb 60f 67f
7:00 9
mph
1008.8mb 59f 67f
6:54 8 9 mph 1008.8mb 59f 67f
6:48 8 9 mph 1008.7mb 60f 68f
6:42 6 8 mph 1008.7mb 60f 68f
6:36 6 10 mph 1008.6mb 60f 68f
6:30 8 11 mph 1008.7mb 60f 67f
6:24 8 11 mph 1008.6mb 60f 68f